createdAt,value
2023-01-13T00:00:34.853Z,13.33
2023-01-13T00:03:18.168Z,12.70
2023-01-13T00:06:01.627Z,12.80
2023-01-13T00:08:45.198Z,12.17
2023-01-13T00:11:28.322Z,12.20
2023-01-13T00:14:11.386Z,12.20
2023-01-13T00:16:55.949Z,13.00
2023-01-13T00:19:38.974Z,12.17
2023-01-13T00:22:22.025Z,11.67
2023-01-13T00:25:06.756Z,11.50
2023-01-13T00:27:50.120Z,12.47
2023-01-13T00:30:34.183Z,11.27
2023-01-13T00:33:18.625Z,13.00
2023-01-13T00:36:02.910Z,12.33
2023-01-13T00:38:47.830Z,12.83
2023-01-13T00:41:50.907Z,12.20
2023-01-13T00:44:32.879Z,12.63
2023-01-13T00:47:15.966Z,12.40
2023-01-13T00:50:00.408Z,12.07
2023-01-13T00:52:43.533Z,11.83
2023-01-13T00:55:26.556Z,12.80
2023-01-13T00:58:09.617Z,12.40
2023-01-13T01:00:52.796Z,12.43
2023-01-13T01:03:36.797Z,13.90
2023-01-13T01:06:24.878Z,12.93
2023-01-13T01:09:08.174Z,13.60
2023-01-13T01:11:51.202Z,12.83
2023-01-13T01:14:35.141Z,12.87
2023-01-13T01:17:18.380Z,13.90
2023-01-13T01:20:01.502Z,13.57
2023-01-13T01:22:45.995Z,13.43
2023-01-13T01:25:29.048Z,13.90
2023-01-13T01:28:12.039Z,13.07
2023-01-13T01:30:55.699Z,13.83
2023-01-13T01:33:38.724Z,14.27
2023-01-13T01:36:24.243Z,13.70
2023-01-13T01:39:08.711Z,13.03
2023-01-13T01:42:09.545Z,14.60
2023-01-13T01:45:01.927Z,13.10
2023-01-13T01:47:46.890Z,14.03
2023-01-13T01:50:30.766Z,13.03
2023-01-13T01:53:19.768Z,12.80
2023-01-13T01:56:04.827Z,13.17
2023-01-13T01:58:52.241Z,12.70
2023-01-13T02:01:35.634Z,14.17
2023-01-13T02:04:24.531Z,13.27
2023-01-13T02:07:08.441Z,13.00
2023-01-13T02:09:52.878Z,13.57
2023-01-13T02:12:38.490Z,12.80
2023-01-13T02:15:24.228Z,13.60
2023-01-13T02:18:22.194Z,12.60
2023-01-13T02:21:39.755Z,12.30
2023-01-13T02:24:54.028Z,12.57
2023-01-13T02:27:59.470Z,13.90
2023-01-13T02:31:04.597Z,13.53
2023-01-13T02:33:59.554Z,12.47
2023-01-13T02:36:52.208Z,11.50
2023-01-13T02:39:39.725Z,11.83
2023-01-13T02:42:46.006Z,12.80
2023-01-13T02:45:33.634Z,12.57
2023-01-13T02:48:20.428Z,12.23
2023-01-13T02:51:07.927Z,12.47
2023-01-13T02:53:56.511Z,12.00
2023-01-13T02:56:46.267Z,11.73
2023-01-13T02:59:32.591Z,11.73
2023-01-13T03:02:20.319Z,12.07
2023-01-13T03:05:05.705Z,11.90
2023-01-13T03:08:15.596Z,12.23
2023-01-13T03:11:05.186Z,12.03
2023-01-13T03:14:05.850Z,10.97
2023-01-13T03:17:00.932Z,11.77
2023-01-13T03:19:48.315Z,12.00
2023-01-13T03:22:41.449Z,11.77
2023-01-13T03:25:29.793Z,12.00
2023-01-13T03:28:20.404Z,12.87
2023-01-13T03:31:09.088Z,13.73
2023-01-13T03:33:57.459Z,11.83
2023-01-13T03:36:42.906Z,12.90
2023-01-13T03:39:32.928Z,12.70
2023-01-13T03:42:22.191Z,12.83
2023-01-13T03:45:10.748Z,12.53
2023-01-13T03:47:58.644Z,12.43
2023-01-13T03:50:48.694Z,13.03
2023-01-13T03:53:35.735Z,13.47
2023-01-13T03:56:30.312Z,14.10
2023-01-13T03:59:18.632Z,12.87
2023-01-13T04:02:08.125Z,12.67
2023-01-13T04:04:56.300Z,12.70
2023-01-13T04:07:51.873Z,12.40
2023-01-13T04:10:42.001Z,12.33
2023-01-13T04:13:33.423Z,11.50
2023-01-13T04:16:16.801Z,12.23
2023-01-13T04:18:59.934Z,12.57
2023-01-13T04:21:43.400Z,12.60
2023-01-13T04:24:26.713Z,12.33
2023-01-13T04:27:09.760Z,12.17
2023-01-13T04:29:54.212Z,11.60
2023-01-13T04:32:37.548Z,11.23
2023-01-13T04:35:20.606Z,11.00
2023-01-13T04:38:04.710Z,12.27
2023-01-13T04:40:47.996Z,11.40
2023-01-13T04:43:31.038Z,14.17
2023-01-13T04:46:16.195Z,16.37
2023-01-13T04:48:59.266Z,16.17
2023-01-13T04:51:42.451Z,17.03
2023-01-13T04:54:25.760Z,18.37
2023-01-13T04:57:09.045Z,14.67
2023-01-13T04:59:52.118Z,12.27
2023-01-13T05:02:37.060Z,11.70
2023-01-13T05:05:20.422Z,11.20
2023-01-13T05:08:03.535Z,10.33
2023-01-13T05:10:46.572Z,11.77
2023-01-13T05:13:46.758Z,10.80
2023-01-13T05:16:47.421Z,11.23
2023-01-13T05:19:34.043Z,10.90
2023-01-13T05:22:34.643Z,10.73
2023-01-13T05:25:25.327Z,10.47
2023-01-13T05:28:09.367Z,11.13
2023-01-13T05:30:52.633Z,11.20
2023-01-13T05:33:36.068Z,11.63
2023-01-13T05:36:20.631Z,11.83
2023-01-13T05:39:03.739Z,13.43
2023-01-13T05:42:04.482Z,12.03
2023-01-13T05:44:47.568Z,12.07
2023-01-13T05:47:30.655Z,11.87
2023-01-13T05:50:13.992Z,12.07
2023-01-13T05:52:58.674Z,11.53
2023-01-13T05:55:42.417Z,11.07
2023-01-13T05:58:28.368Z,13.30
2023-01-13T06:01:11.543Z,11.70
2023-01-13T06:03:54.698Z,14.00
2023-01-13T06:06:37.746Z,12.13
2023-01-13T06:09:22.832Z,12.27
2023-01-13T06:12:06.698Z,12.80
2023-01-13T06:14:49.797Z,13.37
2023-01-13T06:17:33.005Z,13.13
2023-01-13T06:20:17.111Z,13.53
2023-01-13T06:23:01.044Z,12.83
2023-01-13T06:25:51.229Z,13.90
2023-01-13T06:28:34.983Z,14.30
2023-01-13T06:31:18.344Z,14.23
2023-01-13T06:34:06.058Z,14.63
2023-01-13T06:36:53.589Z,15.73
2023-01-13T06:39:36.918Z,14.50
2023-01-13T06:42:38.954Z,14.57
2023-01-13T06:45:23.086Z,14.87
2023-01-13T06:48:06.897Z,15.10
2023-01-13T06:50:51.052Z,16.80
2023-01-13T06:53:34.238Z,15.60
2023-01-13T06:56:18.317Z,15.13
2023-01-13T06:59:02.848Z,14.80
2023-01-13T07:01:46.231Z,14.83
2023-01-13T07:04:29.602Z,16.00
2023-01-13T07:07:13.207Z,15.17
2023-01-13T07:09:56.333Z,14.67
2023-01-13T07:12:59.902Z,15.67
2023-01-13T07:15:53.222Z,15.00
2023-01-13T07:18:37.630Z,15.70
2023-01-13T07:21:21.263Z,16.30
2023-01-13T07:24:05.374Z,15.30
2023-01-13T07:26:48.391Z,15.67
2023-01-13T07:29:31.580Z,15.70
2023-01-13T07:32:16.655Z,15.30
2023-01-13T07:35:04.843Z,15.00
2023-01-13T07:37:49.934Z,15.27
2023-01-13T07:40:33.497Z,15.10
2023-01-13T07:43:33.922Z,15.97
2023-01-13T07:46:17.153Z,14.93
2023-01-13T07:49:02.192Z,15.83
2023-01-13T07:51:48.246Z,15.17
2023-01-13T07:54:40.199Z,15.63
2023-01-13T07:57:23.973Z,15.33
2023-01-13T08:00:08.192Z,13.97
2023-01-13T08:02:51.603Z,15.23
2023-01-13T08:05:37.426Z,15.63
2023-01-13T08:08:20.658Z,15.73
2023-01-13T08:11:06.773Z,14.17
2023-01-13T08:13:49.928Z,14.80
2023-01-13T08:16:35.300Z,15.43
2023-01-13T08:19:18.665Z,14.77
2023-01-13T08:22:03.403Z,15.60
2023-01-13T08:24:46.583Z,14.33
2023-01-13T08:27:29.694Z,15.93
2023-01-13T08:30:13.348Z,15.47
2023-01-13T08:32:56.507Z,14.63
2023-01-13T08:35:39.936Z,15.00
2023-01-13T08:38:25.144Z,14.73
2023-01-13T08:41:12.028Z,14.63
2023-01-13T08:43:55.180Z,13.13
2023-01-13T08:46:42.167Z,13.27
2023-01-13T08:49:26.331Z,12.43
2023-01-13T08:52:09.714Z,12.13
2023-01-13T08:54:54.279Z,11.00
2023-01-13T08:57:37.490Z,9.70
2023-01-13T09:00:23.685Z,10.00
2023-01-13T09:03:06.804Z,11.30
2023-01-13T09:05:50.066Z,10.97
2023-01-13T09:08:33.239Z,12.27
2023-01-13T09:11:40.159Z,9.37
2023-01-13T09:14:26.775Z,9.73
2023-01-13T09:17:10.077Z,9.73
2023-01-13T09:19:53.201Z,10.90
2023-01-13T09:22:37.776Z,11.13
2023-01-13T09:25:24.054Z,11.73
2023-01-13T09:28:09.720Z,12.53
2023-01-13T09:30:54.396Z,11.87
2023-01-13T09:33:54.807Z,12.30
2023-01-13T09:36:37.894Z,12.37
2023-01-13T09:39:22.518Z,11.43
2023-01-13T09:42:32.068Z,11.23
2023-01-13T09:45:20.488Z,10.03
2023-01-13T09:48:10.059Z,10.60
2023-01-13T09:51:01.949Z,10.80
2023-01-13T09:53:49.934Z,10.77
2023-01-13T09:56:33.081Z,11.23
2023-01-13T09:59:17.365Z,10.93
2023-01-13T10:02:14.902Z,10.87
2023-01-13T10:05:07.399Z,11.07
2023-01-13T10:07:53.398Z,11.63
2023-01-13T10:10:43.176Z,11.40
2023-01-13T10:13:27.760Z,11.90
2023-01-13T10:16:25.325Z,12.60
2023-01-13T10:19:17.387Z,12.60
2023-01-13T10:22:17.185Z,11.37
2023-01-13T10:25:20.644Z,12.23
2023-01-13T10:28:11.638Z,11.77
2023-01-13T10:30:54.882Z,11.63
2023-01-13T10:33:38.285Z,10.63
2023-01-13T10:36:23.385Z,10.93
2023-01-13T10:39:11.371Z,10.97
2023-01-13T10:42:03.975Z,10.37
2023-01-13T10:44:52.595Z,10.87
2023-01-13T10:47:37.283Z,13.20
2023-01-13T10:50:25.479Z,10.67
2023-01-13T10:53:23.827Z,12.03
2023-01-13T10:56:07.297Z,11.10
2023-01-13T10:58:50.461Z,10.23
2023-01-13T11:01:34.002Z,11.77
2023-01-13T11:04:40.751Z,11.80
2023-01-13T11:07:31.328Z,11.20
2023-01-13T11:10:24.693Z,10.47
2023-01-13T11:13:14.820Z,11.93
2023-01-13T11:16:03.494Z,9.13
2023-01-13T11:19:02.579Z,9.50
2023-01-13T11:21:53.306Z,10.33
2023-01-13T11:24:40.526Z,11.47
2023-01-13T11:27:31.430Z,11.53
2023-01-13T11:30:31.620Z,12.13
2023-01-13T11:33:32.054Z,10.90
2023-01-13T11:36:20.576Z,11.43
2023-01-13T11:39:17.951Z,11.10
2023-01-13T11:42:24.333Z,11.83
2023-01-13T11:45:19.813Z,12.00
2023-01-13T11:48:03.822Z,11.33
2023-01-13T11:50:54.008Z,11.07
2023-01-13T11:53:53.073Z,11.00
2023-01-13T11:56:55.297Z,10.23
2023-01-13T11:59:59.965Z,12.40
2023-01-13T12:02:53.900Z,11.53
2023-01-13T12:05:39.756Z,11.40
2023-01-13T12:08:35.567Z,9.90
2023-01-13T12:11:26.741Z,9.83
2023-01-13T12:14:21.311Z,8.87
2023-01-13T12:17:12.786Z,10.20
2023-01-13T12:19:57.519Z,10.70
2023-01-13T12:22:42.419Z,10.93
2023-01-13T12:25:33.779Z,10.90
2023-01-13T12:28:21.894Z,10.67
2023-01-13T12:31:05.334Z,10.00
2023-01-13T12:34:00.629Z,10.57
2023-01-13T12:36:58.401Z,11.10
2023-01-13T12:39:51.581Z,11.60
2023-01-13T12:43:00.047Z,10.97
2023-01-13T12:45:44.667Z,10.00
2023-01-13T12:48:49.451Z,9.53
2023-01-13T12:51:35.771Z,8.80
2023-01-13T12:55:17.753Z,10.33
2023-01-13T12:58:16.515Z,9.90
2023-01-13T13:01:09.691Z,10.30
2023-01-13T13:04:10.538Z,10.73
2023-01-13T13:07:05.656Z,10.83
2023-01-13T13:09:54.539Z,12.07
2023-01-13T13:13:12.452Z,12.67
2023-01-13T13:16:36.340Z,13.20
2023-01-13T13:19:48.193Z,16.10
2023-01-13T13:22:45.969Z,14.43
2023-01-13T13:25:30.822Z,13.00
2023-01-13T13:28:25.122Z,14.30
2023-01-13T13:31:31.529Z,14.00
2023-01-13T13:34:26.292Z,14.23
2023-01-13T13:37:32.771Z,15.07
2023-01-13T13:40:34.588Z,14.30
2023-01-13T13:43:39.183Z,14.13
2023-01-13T13:46:45.665Z,13.23
2023-01-13T13:49:39.795Z,13.83
2023-01-13T13:52:26.839Z,14.13
2023-01-13T13:55:18.746Z,15.10
2023-01-13T13:58:02.736Z,13.63
2023-01-13T14:00:49.336Z,14.37
2023-01-13T14:03:37.809Z,14.70
2023-01-13T14:06:25.335Z,13.43
2023-01-13T14:09:18.070Z,13.97
2023-01-13T14:12:03.969Z,15.13
2023-01-13T14:14:48.322Z,13.53
2023-01-13T14:17:32.981Z,13.60
2023-01-13T14:20:19.754Z,14.57
2023-01-13T14:23:05.469Z,14.73
2023-01-13T14:25:50.016Z,14.37
2023-01-13T14:28:36.770Z,15.00
2023-01-13T14:31:22.842Z,13.20
2023-01-13T14:34:31.068Z,14.17
2023-01-13T14:37:26.291Z,15.17
2023-01-13T14:40:49.539Z,16.63
2023-01-13T14:43:32.672Z,15.40
2023-01-13T14:46:17.713Z,13.63
2023-01-13T14:49:02.496Z,14.60
2023-01-13T14:51:46.985Z,14.60
2023-01-13T14:54:48.757Z,15.67
2023-01-13T14:57:33.656Z,18.70
2023-01-13T15:00:23.674Z,17.90
2023-01-13T15:03:08.932Z,20.37
2023-01-13T15:05:53.749Z,20.13
2023-01-13T15:08:40.473Z,17.37
2023-01-13T15:11:26.174Z,17.13
2023-01-13T15:14:12.216Z,17.17
2023-01-13T15:16:55.263Z,19.37
2023-01-13T15:19:38.291Z,17.40
2023-01-13T15:22:21.387Z,18.30
2023-01-13T15:25:06.848Z,19.03
2023-01-13T15:27:53.417Z,20.27
2023-01-13T15:30:36.546Z,19.87
2023-01-13T15:33:20.808Z,18.90
2023-01-13T15:36:04.548Z,20.97
2023-01-13T15:38:47.657Z,21.13
2023-01-13T15:41:49.786Z,20.53
2023-01-13T15:44:50.862Z,20.23
2023-01-13T15:47:34.205Z,21.67
2023-01-13T15:50:20.953Z,19.57
2023-01-13T15:53:04.168Z,21.10
2023-01-13T15:55:50.589Z,20.40
2023-01-13T15:58:35.074Z,21.03
2023-01-13T16:01:21.058Z,18.17
2023-01-13T16:04:07.427Z,18.20
2023-01-13T16:06:50.574Z,18.83
2023-01-13T16:09:33.622Z,18.63
2023-01-13T16:12:16.972Z,17.37
2023-01-13T16:15:01.770Z,18.37
2023-01-13T16:17:46.300Z,17.67
2023-01-13T16:20:29.847Z,18.87
2023-01-13T16:23:13.386Z,20.20
2023-01-13T16:25:56.489Z,19.40
2023-01-13T16:28:39.751Z,19.87
2023-01-13T16:31:30.795Z,18.83
2023-01-13T16:34:14.029Z,17.00
2023-01-13T16:36:57.096Z,17.40
2023-01-13T16:39:40.206Z,18.17
2023-01-13T16:42:23.741Z,21.33
2023-01-13T16:45:09.732Z,21.97
2023-01-13T16:47:54.711Z,25.30
2023-01-13T16:50:41.730Z,25.83
2023-01-13T16:53:25.411Z,27.73
2023-01-13T16:56:20.531Z,26.03
2023-01-13T16:59:08.627Z,23.23
2023-01-13T17:01:52.343Z,24.93
2023-01-13T17:04:37.251Z,21.57
2023-01-13T17:07:20.615Z,20.03
2023-01-13T17:10:04.232Z,20.87
2023-01-13T17:12:47.443Z,22.17
2023-01-13T17:15:30.785Z,21.53
2023-01-13T17:18:14.657Z,21.30
2023-01-13T17:21:00.150Z,20.73
2023-01-13T17:23:43.637Z,19.33
2023-01-13T17:26:32.406Z,21.30
2023-01-13T17:29:17.345Z,20.53
2023-01-13T17:32:01.550Z,20.57
2023-01-13T17:34:45.220Z,22.10
2023-01-13T17:37:29.739Z,19.83
2023-01-13T17:40:14.156Z,20.00
2023-01-13T17:42:57.539Z,20.20
2023-01-13T17:45:42.946Z,20.77
2023-01-13T17:48:26.566Z,21.57
2023-01-13T17:51:16.656Z,21.47
2023-01-13T17:54:01.163Z,19.93
2023-01-13T17:56:44.854Z,22.10
2023-01-13T17:59:28.026Z,23.20
2023-01-13T18:02:13.846Z,23.83
2023-01-13T18:04:57.167Z,26.20
2023-01-13T18:07:40.512Z,26.13
2023-01-13T18:10:25.743Z,25.60
2023-01-13T18:13:10.071Z,25.97
2023-01-13T18:16:01.930Z,25.67
2023-01-13T18:18:47.048Z,27.13
2023-01-13T18:21:47.681Z,25.60
2023-01-13T18:24:48.247Z,27.60
2023-01-13T18:27:35.678Z,27.50
2023-01-13T18:30:19.069Z,26.00
2023-01-13T18:33:03.467Z,26.23
2023-01-13T18:35:47.055Z,26.77
2023-01-13T18:38:30.207Z,27.90
2023-01-13T18:41:27.863Z,29.80
2023-01-13T18:44:12.798Z,28.53
2023-01-13T18:46:56.034Z,30.33
2023-01-13T18:49:39.520Z,34.50
2023-01-13T18:52:24.293Z,33.80
2023-01-13T18:55:08.284Z,37.70
2023-01-13T18:57:52.324Z,32.10
2023-01-13T19:00:38.109Z,31.43
2023-01-13T19:03:30.056Z,34.90
2023-01-13T19:06:14.024Z,34.10
2023-01-13T19:08:58.302Z,32.33
2023-01-13T19:11:42.550Z,36.53
2023-01-13T19:14:38.365Z,36.37
2023-01-13T19:17:25.426Z,37.57
2023-01-13T19:20:11.539Z,40.63
2023-01-13T19:22:56.029Z,40.83
2023-01-13T19:25:39.276Z,39.33
2023-01-13T19:28:23.251Z,41.70
2023-01-13T19:31:08.364Z,52.83
2023-01-13T19:33:53.068Z,43.67
2023-01-13T19:36:36.382Z,49.87
2023-01-13T19:39:19.833Z,54.70
2023-01-13T19:42:25.112Z,37.47
2023-01-13T19:45:28.344Z,28.23
2023-01-13T19:48:12.737Z,30.47
2023-01-13T19:50:57.560Z,30.73
2023-01-13T19:53:40.782Z,32.47
2023-01-13T19:56:25.173Z,30.00
2023-01-13T19:59:09.515Z,28.47
2023-01-13T20:01:52.774Z,31.40
2023-01-13T20:04:39.416Z,30.77
2023-01-13T20:07:26.663Z,41.73
2023-01-13T20:10:10.930Z,51.47
2023-01-13T20:12:54.382Z,42.40
2023-01-13T20:15:40.166Z,34.97
2023-01-13T20:18:23.734Z,31.97
2023-01-13T20:21:08.542Z,33.53
2023-01-13T20:24:01.879Z,34.67
2023-01-13T20:26:45.788Z,35.30
2023-01-13T20:29:30.381Z,33.57
2023-01-13T20:32:13.541Z,32.27
2023-01-13T20:34:56.716Z,28.60
2023-01-13T20:37:40.649Z,27.00
2023-01-13T20:40:25.770Z,26.57
2023-01-13T20:43:08.187Z,25.73
2023-01-13T20:45:51.788Z,27.83
2023-01-13T20:48:34.873Z,27.13
2023-01-13T20:51:18.500Z,27.27
2023-01-13T20:54:01.726Z,25.77
2023-01-13T20:56:46.778Z,26.83
2023-01-13T20:59:29.871Z,26.13
2023-01-13T21:02:14.918Z,26.20
2023-01-13T21:04:59.156Z,28.27
2023-01-13T21:07:43.584Z,27.70
2023-01-13T21:10:26.687Z,28.67
2023-01-13T21:13:29.801Z,30.97
2023-01-13T21:16:12.980Z,33.73
2023-01-13T21:19:07.197Z,30.93
2023-01-13T21:21:50.323Z,30.23
2023-01-13T21:24:33.440Z,33.23
2023-01-13T21:27:16.699Z,32.17
2023-01-13T21:30:04.138Z,31.00
2023-01-13T21:32:47.845Z,29.43
2023-01-13T21:35:30.947Z,29.73
2023-01-13T21:38:13.982Z,28.63
2023-01-13T21:40:59.825Z,28.60
2023-01-13T21:44:00.115Z,29.47
2023-01-13T21:47:02.006Z,28.27
2023-01-13T21:49:45.171Z,29.70
2023-01-13T21:52:28.493Z,29.70
2023-01-13T21:55:20.437Z,29.83
2023-01-13T21:58:10.671Z,29.63
2023-01-13T22:00:54.312Z,29.23
2023-01-13T22:03:53.307Z,29.17
2023-01-13T22:06:36.368Z,29.23
2023-01-13T22:09:19.628Z,30.03
2023-01-13T22:12:02.722Z,29.97
2023-01-13T22:14:45.739Z,30.80
2023-01-13T22:17:31.653Z,32.40
2023-01-13T22:20:17.055Z,30.67
2023-01-13T22:23:00.381Z,29.83
2023-01-13T22:25:43.388Z,29.97
2023-01-13T22:28:34.205Z,29.97
2023-01-13T22:31:19.630Z,28.53
2023-01-13T22:34:02.672Z,27.50
2023-01-13T22:36:47.197Z,27.97
2023-01-13T22:39:30.516Z,31.10
2023-01-13T22:42:13.584Z,29.27
2023-01-13T22:44:56.918Z,28.03
2023-01-13T22:47:40.519Z,29.20
2023-01-13T22:50:23.606Z,29.20
2023-01-13T22:53:08.040Z,27.50
2023-01-13T22:55:58.039Z,29.53
2023-01-13T22:58:41.066Z,29.13
2023-01-13T23:01:25.002Z,30.03
2023-01-13T23:04:08.242Z,29.17
2023-01-13T23:06:51.715Z,28.40
2023-01-13T23:09:36.502Z,28.00
2023-01-13T23:12:19.821Z,27.73
2023-01-13T23:15:02.845Z,26.33
2023-01-13T23:17:45.868Z,26.67
2023-01-13T23:20:28.935Z,27.17
2023-01-13T23:23:12.266Z,27.37
2023-01-13T23:25:57.133Z,28.30
2023-01-13T23:28:40.658Z,29.60
2023-01-13T23:31:23.833Z,28.90
2023-01-13T23:34:06.934Z,29.47
2023-01-13T23:36:50.080Z,29.53
2023-01-13T23:39:33.175Z,30.83
2023-01-13T23:42:19.488Z,31.13
2023-01-13T23:45:02.480Z,30.67
2023-01-13T23:47:45.565Z,33.77
2023-01-13T23:50:28.610Z,39.47
2023-01-13T23:53:11.891Z,36.33
2023-01-13T23:55:58.298Z,35.60
2023-01-13T23:58:43.520Z,37.73
